sensor_id;sensor_type;location;lat;lon;timestamp;P1;durP1;ratioP1;P2;durP2;ratioP2
5225;SDS011;2632;51.666;7.146;2023-02-28T00:00:30;9.10;;;5.10;;
5225;SDS011;2632;51.666;7.146;2023-02-28T00:02:57;5.90;;;4.13;;
5225;SDS011;2632;51.666;7.146;2023-02-28T00:05:25;7.27;;;4.60;;
5225;SDS011;2632;51.666;7.146;2023-02-28T00:07:53;9.50;;;4.37;;
5225;SDS011;2632;51.666;7.146;2023-02-28T00:10:21;12.40;;;5.20;;
5225;SDS011;2632;51.666;7.146;2023-02-28T00:12:50;9.73;;;5.13;;
5225;SDS011;2632;51.666;7.146;2023-02-28T00:15:17;6.70;;;4.73;;
5225;SDS011;2632;51.666;7.146;2023-02-28T00:17:45;7.67;;;4.83;;
5225;SDS011;2632;51.666;7.146;2023-02-28T00:20:12;8.30;;;5.00;;
5225;SDS011;2632;51.666;7.146;2023-02-28T00:22:40;9.60;;;4.43;;
5225;SDS011;2632;51.666;7.146;2023-02-28T00:25:11;6.10;;;4.40;;
5225;SDS011;2632;51.666;7.146;2023-02-28T00:27:40;6.10;;;4.43;;
5225;SDS011;2632;51.666;7.146;2023-02-28T00:30:09;8.27;;;3.77;;
5225;SDS011;2632;51.666;7.146;2023-02-28T00:32:38;6.63;;;3.60;;
5225;SDS011;2632;51.666;7.146;2023-02-28T00:35:05;6.10;;;4.00;;
5225;SDS011;2632;51.666;7.146;2023-02-28T00:37:33;9.00;;;4.90;;
5225;SDS011;2632;51.666;7.146;2023-02-28T00:40:00;7.33;;;4.20;;
5225;SDS011;2632;51.666;7.146;2023-02-28T00:42:27;6.47;;;3.80;;
5225;SDS011;2632;51.666;7.146;2023-02-28T00:44:53;8.40;;;4.07;;
5225;SDS011;2632;51.666;7.146;2023-02-28T00:47:20;6.53;;;4.20;;
5225;SDS011;2632;51.666;7.146;2023-02-28T00:49:47;7.47;;;4.03;;
5225;SDS011;2632;51.666;7.146;2023-02-28T00:52:14;4.80;;;3.37;;
5225;SDS011;2632;51.666;7.146;2023-02-28T00:54:40;10.40;;;4.20;;
5225;SDS011;2632;51.666;7.146;2023-02-28T00:57:07;6.77;;;4.27;;
5225;SDS011;2632;51.666;7.146;2023-02-28T00:59:34;7.30;;;3.70;;
5225;SDS011;2632;51.666;7.146;2023-02-28T01:02:01;7.00;;;3.93;;
5225;SDS011;2632;51.666;7.146;2023-02-28T01:04:27;5.53;;;4.00;;
5225;SDS011;2632;51.666;7.146;2023-02-28T01:06:54;9.53;;;4.53;;
5225;SDS011;2632;51.666;7.146;2023-02-28T01:09:20;4.73;;;3.83;;
5225;SDS011;2632;51.666;7.146;2023-02-28T01:11:47;10.43;;;4.33;;
5225;SDS011;2632;51.666;7.146;2023-02-28T01:14:14;6.33;;;3.70;;
5225;SDS011;2632;51.666;7.146;2023-02-28T01:16:42;5.73;;;3.43;;
5225;SDS011;2632;51.666;7.146;2023-02-28T01:19:09;8.20;;;4.17;;
5225;SDS011;2632;51.666;7.146;2023-02-28T01:21:36;6.80;;;4.23;;
5225;SDS011;2632;51.666;7.146;2023-02-28T01:24:03;7.07;;;3.87;;
5225;SDS011;2632;51.666;7.146;2023-02-28T01:26:31;8.53;;;4.00;;
5225;SDS011;2632;51.666;7.146;2023-02-28T01:28:58;5.73;;;3.77;;
5225;SDS011;2632;51.666;7.146;2023-02-28T01:31:24;5.40;;;3.50;;
5225;SDS011;2632;51.666;7.146;2023-02-28T01:33:52;5.23;;;3.90;;
5225;SDS011;2632;51.666;7.146;2023-02-28T01:36:20;4.80;;;3.47;;
5225;SDS011;2632;51.666;7.146;2023-02-28T01:38:48;13.20;;;4.20;;
5225;SDS011;2632;51.666;7.146;2023-02-28T01:41:18;5.30;;;3.37;;
5225;SDS011;2632;51.666;7.146;2023-02-28T01:43:57;4.87;;;3.63;;
5225;SDS011;2632;51.666;7.146;2023-02-28T01:46:44;4.60;;;3.53;;
5225;SDS011;2632;51.666;7.146;2023-02-28T01:49:11;6.43;;;3.73;;
5225;SDS011;2632;51.666;7.146;2023-02-28T01:51:45;7.00;;;3.40;;
5225;SDS011;2632;51.666;7.146;2023-02-28T01:54:22;6.70;;;4.10;;
5225;SDS011;2632;51.666;7.146;2023-02-28T01:57:04;6.20;;;3.87;;
5225;SDS011;2632;51.666;7.146;2023-02-28T01:59:37;6.90;;;3.47;;
5225;SDS011;2632;51.666;7.146;2023-02-28T02:02:30;7.47;;;3.30;;
5225;SDS011;2632;51.666;7.146;2023-02-28T02:05:16;6.17;;;3.80;;
5225;SDS011;2632;51.666;7.146;2023-02-28T02:07:50;4.80;;;3.20;;
5225;SDS011;2632;51.666;7.146;2023-02-28T02:10:21;8.23;;;3.20;;
5225;SDS011;2632;51.666;7.146;2023-02-28T02:18:10;5.63;;;3.30;;
5225;SDS011;2632;51.666;7.146;2023-02-28T02:20:58;4.53;;;3.17;;
5225;SDS011;2632;51.666;7.146;2023-02-28T02:34:56;4.67;;;3.10;;
5225;SDS011;2632;51.666;7.146;2023-02-28T02:37:36;3.63;;;2.80;;
5225;SDS011;2632;51.666;7.146;2023-02-28T02:40:31;4.13;;;3.17;;
5225;SDS011;2632;51.666;7.146;2023-02-28T02:43:01;7.07;;;4.03;;
5225;SDS011;2632;51.666;7.146;2023-02-28T02:45:46;6.83;;;4.00;;
5225;SDS011;2632;51.666;7.146;2023-02-28T02:48:21;8.10;;;4.40;;
5225;SDS011;2632;51.666;7.146;2023-02-28T02:50:56;7.70;;;4.50;;
5225;SDS011;2632;51.666;7.146;2023-02-28T02:53:30;12.47;;;5.87;;
5225;SDS011;2632;51.666;7.146;2023-02-28T02:56:01;11.20;;;5.10;;
5225;SDS011;2632;51.666;7.146;2023-02-28T02:58:30;7.57;;;4.30;;
5225;SDS011;2632;51.666;7.146;2023-02-28T03:01:00;8.73;;;4.77;;
5225;SDS011;2632;51.666;7.146;2023-02-28T03:03:28;7.83;;;4.40;;
5225;SDS011;2632;51.666;7.146;2023-02-28T03:05:57;6.87;;;4.20;;
5225;SDS011;2632;51.666;7.146;2023-02-28T03:08:26;8.13;;;4.70;;
5225;SDS011;2632;51.666;7.146;2023-02-28T03:10:57;8.17;;;4.40;;
5225;SDS011;2632;51.666;7.146;2023-02-28T03:13:32;5.93;;;3.60;;
5225;SDS011;2632;51.666;7.146;2023-02-28T03:16:32;7.27;;;4.10;;
5225;SDS011;2632;51.666;7.146;2023-02-28T03:21:45;5.10;;;3.80;;
5225;SDS011;2632;51.666;7.146;2023-02-28T03:27:04;6.93;;;3.63;;
5225;SDS011;2632;51.666;7.146;2023-02-28T03:29:37;7.13;;;3.60;;
5225;SDS011;2632;51.666;7.146;2023-02-28T03:32:14;5.50;;;3.13;;
5225;SDS011;2632;51.666;7.146;2023-02-28T03:34:54;6.53;;;3.90;;
5225;SDS011;2632;51.666;7.146;2023-02-28T03:37:26;4.97;;;3.27;;
5225;SDS011;2632;51.666;7.146;2023-02-28T03:39:57;3.63;;;3.00;;
5225;SDS011;2632;51.666;7.146;2023-02-28T03:42:28;5.53;;;3.40;;
5225;SDS011;2632;51.666;7.146;2023-02-28T03:44:58;4.77;;;3.17;;
5225;SDS011;2632;51.666;7.146;2023-02-28T03:47:35;4.47;;;3.30;;
5225;SDS011;2632;51.666;7.146;2023-02-28T03:52:38;4.87;;;2.97;;
5225;SDS011;2632;51.666;7.146;2023-02-28T03:55:11;7.17;;;2.90;;
5225;SDS011;2632;51.666;7.146;2023-02-28T03:57:41;3.80;;;2.80;;
5225;SDS011;2632;51.666;7.146;2023-02-28T04:00:20;5.00;;;3.37;;
5225;SDS011;2632;51.666;7.146;2023-02-28T04:02:52;6.47;;;3.07;;
5225;SDS011;2632;51.666;7.146;2023-02-28T04:05:20;4.10;;;2.77;;
5225;SDS011;2632;51.666;7.146;2023-02-28T04:07:48;5.00;;;2.60;;
5225;SDS011;2632;51.666;7.146;2023-02-28T04:10:15;4.50;;;2.97;;
5225;SDS011;2632;51.666;7.146;2023-02-28T04:12:42;8.00;;;2.80;;
5225;SDS011;2632;51.666;7.146;2023-02-28T04:15:09;5.10;;;2.50;;
5225;SDS011;2632;51.666;7.146;2023-02-28T04:17:37;4.77;;;2.40;;
5225;SDS011;2632;51.666;7.146;2023-02-28T04:20:04;6.00;;;2.50;;
5225;SDS011;2632;51.666;7.146;2023-02-28T04:22:35;5.63;;;2.83;;
5225;SDS011;2632;51.666;7.146;2023-02-28T04:25:03;4.30;;;3.07;;
5225;SDS011;2632;51.666;7.146;2023-02-28T04:27:31;4.10;;;2.87;;
5225;SDS011;2632;51.666;7.146;2023-02-28T04:29:58;4.43;;;2.90;;
5225;SDS011;2632;51.666;7.146;2023-02-28T04:32:25;5.60;;;2.77;;
5225;SDS011;2632;51.666;7.146;2023-02-28T04:34:51;27.87;;;3.70;;
5225;SDS011;2632;51.666;7.146;2023-02-28T04:37:18;5.03;;;2.90;;
5225;SDS011;2632;51.666;7.146;2023-02-28T04:39:45;4.63;;;3.10;;
5225;SDS011;2632;51.666;7.146;2023-02-28T04:42:11;10.30;;;3.33;;
5225;SDS011;2632;51.666;7.146;2023-02-28T04:44:39;6.80;;;3.40;;
5225;SDS011;2632;51.666;7.146;2023-02-28T04:47:05;10.03;;;3.50;;
5225;SDS011;2632;51.666;7.146;2023-02-28T04:49:32;5.20;;;3.27;;
5225;SDS011;2632;51.666;7.146;2023-02-28T04:51:59;5.53;;;3.20;;
5225;SDS011;2632;51.666;7.146;2023-02-28T04:54:26;5.70;;;3.30;;
5225;SDS011;2632;51.666;7.146;2023-02-28T04:56:54;4.07;;;3.13;;
5225;SDS011;2632;51.666;7.146;2023-02-28T04:59:20;6.30;;;2.97;;
5225;SDS011;2632;51.666;7.146;2023-02-28T05:01:48;8.83;;;3.57;;
5225;SDS011;2632;51.666;7.146;2023-02-28T05:04:15;7.57;;;3.10;;
5225;SDS011;2632;51.666;7.146;2023-02-28T05:06:42;8.70;;;4.10;;
5225;SDS011;2632;51.666;7.146;2023-02-28T05:09:09;5.77;;;3.63;;
5225;SDS011;2632;51.666;7.146;2023-02-28T05:11:37;7.07;;;3.20;;
5225;SDS011;2632;51.666;7.146;2023-02-28T05:14:06;3.77;;;3.10;;
5225;SDS011;2632;51.666;7.146;2023-02-28T05:16:38;7.03;;;3.63;;
5225;SDS011;2632;51.666;7.146;2023-02-28T05:19:05;5.43;;;3.80;;
5225;SDS011;2632;51.666;7.146;2023-02-28T05:21:35;10.30;;;4.10;;
5225;SDS011;2632;51.666;7.146;2023-02-28T05:24:05;5.23;;;3.53;;
5225;SDS011;2632;51.666;7.146;2023-02-28T05:26:36;6.60;;;3.77;;
5225;SDS011;2632;51.666;7.146;2023-02-28T05:29:04;6.40;;;3.80;;
5225;SDS011;2632;51.666;7.146;2023-02-28T05:31:31;9.53;;;4.20;;
5225;SDS011;2632;51.666;7.146;2023-02-28T05:33:58;6.73;;;4.27;;
5225;SDS011;2632;51.666;7.146;2023-02-28T05:36:25;5.93;;;3.97;;
5225;SDS011;2632;51.666;7.146;2023-02-28T05:38:52;5.70;;;3.87;;
5225;SDS011;2632;51.666;7.146;2023-02-28T05:41:19;7.13;;;4.47;;
5225;SDS011;2632;51.666;7.146;2023-02-28T05:43:46;6.80;;;4.27;;
5225;SDS011;2632;51.666;7.146;2023-02-28T05:46:13;6.40;;;4.17;;
5225;SDS011;2632;51.666;7.146;2023-02-28T05:48:42;7.93;;;4.00;;
5225;SDS011;2632;51.666;7.146;2023-02-28T05:51:12;7.43;;;4.67;;
5225;SDS011;2632;51.666;7.146;2023-02-28T05:53:39;4.80;;;3.63;;
5225;SDS011;2632;51.666;7.146;2023-02-28T05:56:05;9.30;;;4.27;;
5225;SDS011;2632;51.666;7.146;2023-02-28T05:58:32;6.10;;;3.23;;
5225;SDS011;2632;51.666;7.146;2023-02-28T06:01:00;5.70;;;3.93;;
5225;SDS011;2632;51.666;7.146;2023-02-28T06:03:44;4.20;;;3.63;;
5225;SDS011;2632;51.666;7.146;2023-02-28T06:06:11;6.27;;;3.27;;
5225;SDS011;2632;51.666;7.146;2023-02-28T06:08:37;7.33;;;3.67;;
5225;SDS011;2632;51.666;7.146;2023-02-28T06:11:04;5.60;;;3.53;;
5225;SDS011;2632;51.666;7.146;2023-02-28T06:13:31;7.23;;;4.13;;
5225;SDS011;2632;51.666;7.146;2023-02-28T06:16:00;7.20;;;4.27;;
5225;SDS011;2632;51.666;7.146;2023-02-28T06:18:27;6.87;;;3.80;;
5225;SDS011;2632;51.666;7.146;2023-02-28T06:20:54;7.23;;;3.60;;
5225;SDS011;2632;51.666;7.146;2023-02-28T06:23:21;5.27;;;3.63;;
5225;SDS011;2632;51.666;7.146;2023-02-28T06:25:48;6.53;;;3.83;;
5225;SDS011;2632;51.666;7.146;2023-02-28T06:28:15;5.87;;;3.20;;
5225;SDS011;2632;51.666;7.146;2023-02-28T06:30:42;7.33;;;4.40;;
5225;SDS011;2632;51.666;7.146;2023-02-28T06:33:11;8.07;;;4.33;;
5225;SDS011;2632;51.666;7.146;2023-02-28T06:35:38;5.47;;;3.70;;
5225;SDS011;2632;51.666;7.146;2023-02-28T06:38:05;8.77;;;3.97;;
5225;SDS011;2632;51.666;7.146;2023-02-28T06:40:31;7.40;;;4.17;;
5225;SDS011;2632;51.666;7.146;2023-02-28T06:43:01;7.40;;;3.93;;
5225;SDS011;2632;51.666;7.146;2023-02-28T06:45:28;7.33;;;4.27;;
5225;SDS011;2632;51.666;7.146;2023-02-28T06:47:54;7.83;;;4.13;;
5225;SDS011;2632;51.666;7.146;2023-02-28T06:50:21;7.53;;;3.97;;
5225;SDS011;2632;51.666;7.146;2023-02-28T06:52:48;6.23;;;3.90;;
5225;SDS011;2632;51.666;7.146;2023-02-28T06:55:14;10.73;;;5.00;;
5225;SDS011;2632;51.666;7.146;2023-02-28T06:57:41;8.33;;;4.40;;
5225;SDS011;2632;51.666;7.146;2023-02-28T07:00:08;8.23;;;4.97;;
5225;SDS011;2632;51.666;7.146;2023-02-28T07:02:36;6.43;;;4.47;;
5225;SDS011;2632;51.666;7.146;2023-02-28T07:05:04;8.17;;;4.40;;
5225;SDS011;2632;51.666;7.146;2023-02-28T07:07:31;7.33;;;4.37;;
5225;SDS011;2632;51.666;7.146;2023-02-28T07:09:58;7.13;;;4.37;;
5225;SDS011;2632;51.666;7.146;2023-02-28T07:12:25;8.07;;;4.50;;
5225;SDS011;2632;51.666;7.146;2023-02-28T07:14:51;9.83;;;4.77;;
5225;SDS011;2632;51.666;7.146;2023-02-28T07:17:18;7.40;;;4.93;;
5225;SDS011;2632;51.666;7.146;2023-02-28T07:19:45;11.27;;;5.10;;
5225;SDS011;2632;51.666;7.146;2023-02-28T07:22:11;6.50;;;4.77;;
5225;SDS011;2632;51.666;7.146;2023-02-28T07:24:41;7.83;;;4.90;;
5225;SDS011;2632;51.666;7.146;2023-02-28T07:27:07;7.97;;;4.70;;
5225;SDS011;2632;51.666;7.146;2023-02-28T07:29:34;10.40;;;4.10;;
5225;SDS011;2632;51.666;7.146;2023-02-28T07:32:00;8.13;;;4.90;;
5225;SDS011;2632;51.666;7.146;2023-02-28T07:34:27;5.63;;;4.00;;
5225;SDS011;2632;51.666;7.146;2023-02-28T07:36:54;8.83;;;3.90;;
5225;SDS011;2632;51.666;7.146;2023-02-28T07:39:21;5.33;;;4.20;;
5225;SDS011;2632;51.666;7.146;2023-02-28T07:41:48;6.77;;;3.57;;
5225;SDS011;2632;51.666;7.146;2023-02-28T07:44:15;6.53;;;4.03;;
5225;SDS011;2632;51.666;7.146;2023-02-28T07:46:41;7.50;;;4.20;;
5225;SDS011;2632;51.666;7.146;2023-02-28T07:49:08;7.90;;;4.00;;
5225;SDS011;2632;51.666;7.146;2023-02-28T07:51:35;6.20;;;3.70;;
5225;SDS011;2632;51.666;7.146;2023-02-28T07:54:01;7.03;;;4.10;;
5225;SDS011;2632;51.666;7.146;2023-02-28T07:56:28;7.20;;;4.07;;
5225;SDS011;2632;51.666;7.146;2023-02-28T07:58:55;5.27;;;3.97;;
5225;SDS011;2632;51.666;7.146;2023-02-28T08:01:22;5.10;;;3.67;;
5225;SDS011;2632;51.666;7.146;2023-02-28T08:03:49;4.57;;;3.70;;
5225;SDS011;2632;51.666;7.146;2023-02-28T08:06:21;5.53;;;4.07;;
5225;SDS011;2632;51.666;7.146;2023-02-28T08:08:49;6.27;;;3.90;;
5225;SDS011;2632;51.666;7.146;2023-02-28T08:11:16;7.70;;;4.90;;
5225;SDS011;2632;51.666;7.146;2023-02-28T08:13:44;6.90;;;4.63;;
5225;SDS011;2632;51.666;7.146;2023-02-28T08:16:12;8.97;;;4.40;;
5225;SDS011;2632;51.666;7.146;2023-02-28T08:18:43;8.30;;;4.87;;
5225;SDS011;2632;51.666;7.146;2023-02-28T08:21:10;4.00;;;3.60;;
5225;SDS011;2632;51.666;7.146;2023-02-28T08:23:37;5.33;;;4.17;;
5225;SDS011;2632;51.666;7.146;2023-02-28T08:26:04;5.70;;;4.00;;
5225;SDS011;2632;51.666;7.146;2023-02-28T08:28:31;5.40;;;3.63;;
5225;SDS011;2632;51.666;7.146;2023-02-28T08:30:58;4.90;;;3.87;;
5225;SDS011;2632;51.666;7.146;2023-02-28T08:33:25;6.80;;;3.50;;
5225;SDS011;2632;51.666;7.146;2023-02-28T08:35:53;2.97;;;2.00;;
5225;SDS011;2632;51.666;7.146;2023-02-28T08:38:21;3.47;;;1.70;;
5225;SDS011;2632;51.666;7.146;2023-02-28T08:40:49;1.90;;;1.60;;
5225;SDS011;2632;51.666;7.146;2023-02-28T08:43:15;2.77;;;1.70;;
5225;SDS011;2632;51.666;7.146;2023-02-28T08:45:42;3.50;;;2.30;;
5225;SDS011;2632;51.666;7.146;2023-02-28T08:48:09;2.17;;;1.97;;
5225;SDS011;2632;51.666;7.146;2023-02-28T08:50:35;2.87;;;2.10;;
5225;SDS011;2632;51.666;7.146;2023-02-28T08:53:02;2.00;;;1.80;;
5225;SDS011;2632;51.666;7.146;2023-02-28T08:55:29;2.50;;;2.07;;
5225;SDS011;2632;51.666;7.146;2023-02-28T08:57:57;1.60;;;1.50;;
5225;SDS011;2632;51.666;7.146;2023-02-28T09:00:24;2.03;;;1.60;;
5225;SDS011;2632;51.666;7.146;2023-02-28T09:02:51;3.60;;;1.90;;
5225;SDS011;2632;51.666;7.146;2023-02-28T09:05:17;2.10;;;1.70;;
5225;SDS011;2632;51.666;7.146;2023-02-28T09:07:44;3.30;;;2.20;;
5225;SDS011;2632;51.666;7.146;2023-02-28T09:10:11;2.30;;;2.10;;
5225;SDS011;2632;51.666;7.146;2023-02-28T09:12:38;1.67;;;1.57;;
5225;SDS011;2632;51.666;7.146;2023-02-28T09:15:05;2.23;;;1.90;;
5225;SDS011;2632;51.666;7.146;2023-02-28T09:17:32;2.80;;;2.00;;
5225;SDS011;2632;51.666;7.146;2023-02-28T09:19:59;2.40;;;1.93;;
5225;SDS011;2632;51.666;7.146;2023-02-28T09:22:25;2.10;;;1.63;;
5225;SDS011;2632;51.666;7.146;2023-02-28T09:24:52;1.70;;;1.60;;
5225;SDS011;2632;51.666;7.146;2023-02-28T09:27:18;1.77;;;1.43;;
5225;SDS011;2632;51.666;7.146;2023-02-28T09:29:45;2.47;;;2.03;;
5225;SDS011;2632;51.666;7.146;2023-02-28T09:32:12;2.43;;;2.00;;
5225;SDS011;2632;51.666;7.146;2023-02-28T09:34:39;2.00;;;1.90;;
5225;SDS011;2632;51.666;7.146;2023-02-28T09:37:06;2.13;;;1.93;;
5225;SDS011;2632;51.666;7.146;2023-02-28T09:39:32;2.00;;;1.70;;
5225;SDS011;2632;51.666;7.146;2023-02-28T09:41:59;3.00;;;1.97;;
5225;SDS011;2632;51.666;7.146;2023-02-28T09:44:49;3.07;;;2.17;;
5225;SDS011;2632;51.666;7.146;2023-02-28T09:47:32;1.97;;;1.33;;
5225;SDS011;2632;51.666;7.146;2023-02-28T09:50:17;2.03;;;1.50;;
5225;SDS011;2632;51.666;7.146;2023-02-28T09:52:59;3.73;;;1.43;;
5225;SDS011;2632;51.666;7.146;2023-02-28T09:55:32;2.10;;;1.30;;
5225;SDS011;2632;51.666;7.146;2023-02-28T09:58:47;1.83;;;1.47;;
5225;SDS011;2632;51.666;7.146;2023-02-28T10:07:07;2.50;;;1.63;;
5225;SDS011;2632;51.666;7.146;2023-02-28T10:09:46;2.00;;;1.70;;
5225;SDS011;2632;51.666;7.146;2023-02-28T10:12:17;2.40;;;1.87;;
5225;SDS011;2632;51.666;7.146;2023-02-28T10:14:46;2.87;;;1.60;;
5225;SDS011;2632;51.666;7.146;2023-02-28T10:17:18;1.40;;;1.27;;
5225;SDS011;2632;51.666;7.146;2023-02-28T10:20:01;2.27;;;1.80;;
5225;SDS011;2632;51.666;7.146;2023-02-28T10:22:44;2.83;;;1.60;;
5225;SDS011;2632;51.666;7.146;2023-02-28T10:25:18;2.23;;;2.03;;
5225;SDS011;2632;51.666;7.146;2023-02-28T10:27:45;2.03;;;1.80;;
5225;SDS011;2632;51.666;7.146;2023-02-28T10:30:12;1.97;;;1.80;;
5225;SDS011;2632;51.666;7.146;2023-02-28T10:32:45;2.07;;;1.60;;
5225;SDS011;2632;51.666;7.146;2023-02-28T10:35:18;4.17;;;1.93;;
5225;SDS011;2632;51.666;7.146;2023-02-28T10:37:56;2.50;;;2.07;;
5225;SDS011;2632;51.666;7.146;2023-02-28T10:40:27;4.13;;;2.20;;
5225;SDS011;2632;51.666;7.146;2023-02-28T10:43:05;3.20;;;2.00;;
5225;SDS011;2632;51.666;7.146;2023-02-28T10:45:57;2.50;;;1.80;;
5225;SDS011;2632;51.666;7.146;2023-02-28T10:48:30;2.43;;;2.20;;
5225;SDS011;2632;51.666;7.146;2023-02-28T10:51:03;2.30;;;2.03;;
5225;SDS011;2632;51.666;7.146;2023-02-28T10:53:46;4.00;;;2.53;;
5225;SDS011;2632;51.666;7.146;2023-02-28T10:56:28;3.40;;;2.40;;
5225;SDS011;2632;51.666;7.146;2023-02-28T10:59:05;2.50;;;2.30;;
5225;SDS011;2632;51.666;7.146;2023-02-28T11:01:48;3.77;;;2.10;;
5225;SDS011;2632;51.666;7.146;2023-02-28T11:04:31;4.70;;;1.93;;
5225;SDS011;2632;51.666;7.146;2023-02-28T11:07:02;2.37;;;2.10;;
5225;SDS011;2632;51.666;7.146;2023-02-28T11:09:37;4.40;;;1.90;;
5225;SDS011;2632;51.666;7.146;2023-02-28T11:12:07;2.93;;;2.30;;
5225;SDS011;2632;51.666;7.146;2023-02-28T11:14:51;2.23;;;1.90;;
5225;SDS011;2632;51.666;7.146;2023-02-28T11:17:24;2.00;;;1.80;;
5225;SDS011;2632;51.666;7.146;2023-02-28T11:19:55;2.40;;;2.10;;
5225;SDS011;2632;51.666;7.146;2023-02-28T11:22:28;2.40;;;2.10;;
5225;SDS011;2632;51.666;7.146;2023-02-28T11:25:19;2.30;;;2.10;;
5225;SDS011;2632;51.666;7.146;2023-02-28T11:28:00;2.63;;;2.00;;
5225;SDS011;2632;51.666;7.146;2023-02-28T11:30:32;2.20;;;1.43;;
5225;SDS011;2632;51.666;7.146;2023-02-28T11:33:00;2.83;;;1.97;;
5225;SDS011;2632;51.666;7.146;2023-02-28T11:35:44;2.30;;;2.10;;
5225;SDS011;2632;51.666;7.146;2023-02-28T11:38:14;2.73;;;2.03;;
5225;SDS011;2632;51.666;7.146;2023-02-28T11:40:55;2.40;;;1.87;;
5225;SDS011;2632;51.666;7.146;2023-02-28T11:46:06;2.57;;;1.90;;
5225;SDS011;2632;51.666;7.146;2023-02-28T11:51:28;2.10;;;2.00;;
5225;SDS011;2632;51.666;7.146;2023-02-28T11:57:03;2.30;;;2.10;;
5225;SDS011;2632;51.666;7.146;2023-02-28T11:59:56;3.47;;;2.00;;
5225;SDS011;2632;51.666;7.146;2023-02-28T12:02:36;2.40;;;1.80;;
5225;SDS011;2632;51.666;7.146;2023-02-28T12:05:34;2.03;;;1.93;;
5225;SDS011;2632;51.666;7.146;2023-02-28T12:14:03;3.90;;;2.77;;
5225;SDS011;2632;51.666;7.146;2023-02-28T12:16:41;2.03;;;1.77;;
5225;SDS011;2632;51.666;7.146;2023-02-28T12:19:21;2.10;;;1.90;;
5225;SDS011;2632;51.666;7.146;2023-02-28T12:27:09;2.30;;;2.10;;
5225;SDS011;2632;51.666;7.146;2023-02-28T12:29:46;2.67;;;2.17;;
5225;SDS011;2632;51.666;7.146;2023-02-28T12:32:31;2.20;;;2.00;;
5225;SDS011;2632;51.666;7.146;2023-02-28T12:35:06;4.00;;;2.50;;
5225;SDS011;2632;51.666;7.146;2023-02-28T12:37:45;2.90;;;1.90;;
5225;SDS011;2632;51.666;7.146;2023-02-28T12:40:21;4.03;;;2.30;;
5225;SDS011;2632;51.666;7.146;2023-02-28T12:43:04;4.87;;;2.33;;
5225;SDS011;2632;51.666;7.146;2023-02-28T12:45:43;3.33;;;2.07;;
5225;SDS011;2632;51.666;7.146;2023-02-28T12:51:10;2.37;;;1.83;;
5225;SDS011;2632;51.666;7.146;2023-02-28T12:53:43;3.67;;;1.90;;
5225;SDS011;2632;51.666;7.146;2023-02-28T12:56:17;3.30;;;2.17;;
5225;SDS011;2632;51.666;7.146;2023-02-28T12:58:56;2.97;;;1.90;;
5225;SDS011;2632;51.666;7.146;2023-02-28T13:09:52;2.13;;;1.97;;
5225;SDS011;2632;51.666;7.146;2023-02-28T13:12:20;2.30;;;1.97;;
5225;SDS011;2632;51.666;7.146;2023-02-28T13:14:49;3.23;;;2.10;;
5225;SDS011;2632;51.666;7.146;2023-02-28T13:17:20;3.77;;;2.10;;
5225;SDS011;2632;51.666;7.146;2023-02-28T13:22:36;1.87;;;1.77;;
5225;SDS011;2632;51.666;7.146;2023-02-28T13:27:54;2.60;;;2.00;;
5225;SDS011;2632;51.666;7.146;2023-02-28T13:33:22;2.23;;;2.03;;
5225;SDS011;2632;51.666;7.146;2023-02-28T13:51:52;4.40;;;2.40;;
5225;SDS011;2632;51.666;7.146;2023-02-28T13:54:48;2.57;;;2.37;;
5225;SDS011;2632;51.666;7.146;2023-02-28T13:58:00;5.60;;;2.00;;
5225;SDS011;2632;51.666;7.146;2023-02-28T14:06:09;4.17;;;2.80;;
5225;SDS011;2632;51.666;7.146;2023-02-28T14:09:01;3.50;;;2.53;;
5225;SDS011;2632;51.666;7.146;2023-02-28T14:11:38;4.37;;;2.73;;
5225;SDS011;2632;51.666;7.146;2023-02-28T14:14:07;2.50;;;2.20;;
5225;SDS011;2632;51.666;7.146;2023-02-28T14:16:44;4.10;;;2.70;;
5225;SDS011;2632;51.666;7.146;2023-02-28T14:19:23;4.10;;;2.70;;
5225;SDS011;2632;51.666;7.146;2023-02-28T14:30:26;5.57;;;2.50;;
5225;SDS011;2632;51.666;7.146;2023-02-28T14:38:54;2.53;;;2.10;;
5225;SDS011;2632;51.666;7.146;2023-02-28T14:41:51;7.10;;;2.37;;
5225;SDS011;2632;51.666;7.146;2023-02-28T14:44:19;3.93;;;2.30;;
5225;SDS011;2632;51.666;7.146;2023-02-28T14:46:58;2.40;;;2.17;;
5225;SDS011;2632;51.666;7.146;2023-02-28T14:49:35;3.30;;;2.20;;
5225;SDS011;2632;51.666;7.146;2023-02-28T14:54:38;4.10;;;2.40;;
5225;SDS011;2632;51.666;7.146;2023-02-28T14:57:05;3.43;;;2.30;;
5225;SDS011;2632;51.666;7.146;2023-02-28T14:59:33;2.90;;;2.50;;
5225;SDS011;2632;51.666;7.146;2023-02-28T15:02:21;3.10;;;2.47;;
5225;SDS011;2632;51.666;7.146;2023-02-28T15:04:56;2.77;;;2.13;;
5225;SDS011;2632;51.666;7.146;2023-02-28T15:07:27;3.50;;;2.37;;
5225;SDS011;2632;51.666;7.146;2023-02-28T15:10:11;4.47;;;2.40;;
5225;SDS011;2632;51.666;7.146;2023-02-28T15:12:54;4.27;;;3.00;;
5225;SDS011;2632;51.666;7.146;2023-02-28T15:15:27;3.47;;;2.63;;
5225;SDS011;2632;51.666;7.146;2023-02-28T15:18:43;3.17;;;2.40;;
5225;SDS011;2632;51.666;7.146;2023-02-28T15:24:34;6.07;;;2.80;;
5225;SDS011;2632;51.666;7.146;2023-02-28T15:27:12;2.83;;;2.50;;
5225;SDS011;2632;51.666;7.146;2023-02-28T15:29:49;5.00;;;3.00;;
5225;SDS011;2632;51.666;7.146;2023-02-28T15:32:23;4.00;;;3.00;;
5225;SDS011;2632;51.666;7.146;2023-02-28T15:35:25;4.90;;;4.00;;
5225;SDS011;2632;51.666;7.146;2023-02-28T15:37:56;5.73;;;3.33;;
5225;SDS011;2632;51.666;7.146;2023-02-28T15:40:28;8.73;;;4.60;;
5225;SDS011;2632;51.666;7.146;2023-02-28T15:42:58;7.80;;;4.80;;
5225;SDS011;2632;51.666;7.146;2023-02-28T15:45:45;5.53;;;3.23;;
5225;SDS011;2632;51.666;7.146;2023-02-28T15:48:21;8.03;;;5.47;;
5225;SDS011;2632;51.666;7.146;2023-02-28T15:50:54;4.57;;;3.60;;
5225;SDS011;2632;51.666;7.146;2023-02-28T15:53:30;4.80;;;3.10;;
5225;SDS011;2632;51.666;7.146;2023-02-28T15:56:00;6.77;;;3.83;;
5225;SDS011;2632;51.666;7.146;2023-02-28T15:58:29;15.23;;;7.73;;
5225;SDS011;2632;51.666;7.146;2023-02-28T16:01:07;7.30;;;4.53;;
5225;SDS011;2632;51.666;7.146;2023-02-28T16:03:48;6.20;;;4.27;;
5225;SDS011;2632;51.666;7.146;2023-02-28T16:08:52;6.53;;;4.73;;
5225;SDS011;2632;51.666;7.146;2023-02-28T16:11:20;6.23;;;3.70;;
5225;SDS011;2632;51.666;7.146;2023-02-28T16:13:48;11.50;;;7.50;;
5225;SDS011;2632;51.666;7.146;2023-02-28T16:16:23;6.97;;;4.60;;
5225;SDS011;2632;51.666;7.146;2023-02-28T16:18:52;8.50;;;5.70;;
5225;SDS011;2632;51.666;7.146;2023-02-28T16:21:19;4.93;;;3.47;;
5225;SDS011;2632;51.666;7.146;2023-02-28T16:23:46;9.67;;;5.67;;
5225;SDS011;2632;51.666;7.146;2023-02-28T16:26:18;7.77;;;4.70;;
5225;SDS011;2632;51.666;7.146;2023-02-28T16:28:47;13.10;;;7.17;;
5225;SDS011;2632;51.666;7.146;2023-02-28T16:31:15;9.77;;;5.10;;
5225;SDS011;2632;51.666;7.146;2023-02-28T16:33:43;6.50;;;4.17;;
5225;SDS011;2632;51.666;7.146;2023-02-28T16:36:14;9.10;;;5.70;;
5225;SDS011;2632;51.666;7.146;2023-02-28T16:38:43;8.80;;;5.33;;
5225;SDS011;2632;51.666;7.146;2023-02-28T16:41:11;14.00;;;5.53;;
5225;SDS011;2632;51.666;7.146;2023-02-28T16:43:45;18.07;;;8.60;;
5225;SDS011;2632;51.666;7.146;2023-02-28T16:46:14;14.20;;;7.87;;
5225;SDS011;2632;51.666;7.146;2023-02-28T16:48:46;12.90;;;5.67;;
5225;SDS011;2632;51.666;7.146;2023-02-28T16:51:17;5.43;;;3.67;;
5225;SDS011;2632;51.666;7.146;2023-02-28T16:53:45;6.43;;;3.70;;
5225;SDS011;2632;51.666;7.146;2023-02-28T16:56:22;5.30;;;3.70;;
5225;SDS011;2632;51.666;7.146;2023-02-28T16:58:51;6.93;;;4.17;;
5225;SDS011;2632;51.666;7.146;2023-02-28T17:01:20;13.40;;;6.53;;
5225;SDS011;2632;51.666;7.146;2023-02-28T17:03:48;11.83;;;7.43;;
5225;SDS011;2632;51.666;7.146;2023-02-28T17:06:22;7.13;;;5.20;;
5225;SDS011;2632;51.666;7.146;2023-02-28T17:08:53;9.57;;;5.33;;
5225;SDS011;2632;51.666;7.146;2023-02-28T17:11:20;8.60;;;5.10;;
5225;SDS011;2632;51.666;7.146;2023-02-28T17:13:47;8.87;;;4.77;;
5225;SDS011;2632;51.666;7.146;2023-02-28T17:16:20;5.17;;;3.60;;
5225;SDS011;2632;51.666;7.146;2023-02-28T17:18:52;6.70;;;3.27;;
5225;SDS011;2632;51.666;7.146;2023-02-28T17:21:20;5.20;;;3.50;;
5225;SDS011;2632;51.666;7.146;2023-02-28T17:23:47;5.50;;;3.53;;
5225;SDS011;2632;51.666;7.146;2023-02-28T17:26:14;6.63;;;3.67;;
5225;SDS011;2632;51.666;7.146;2023-02-28T17:28:46;6.80;;;3.70;;
5225;SDS011;2632;51.666;7.146;2023-02-28T17:31:13;5.03;;;3.43;;
5225;SDS011;2632;51.666;7.146;2023-02-28T17:33:41;5.97;;;4.27;;
5225;SDS011;2632;51.666;7.146;2023-02-28T17:36:14;6.97;;;4.50;;